Time;durP1;ratioP1;P1;durP2;ratioP2;P2;SDS_P1;SDS_P2;PMS_P1;PMS_P2;Temp;Humidity;BMP_temperature;BMP_pressure;BME280_temperature;BME280_humidity;BME280_pressure;Samples;Min_cycle;Max_cycle;Signal;HPM_P1;HPM_P2
2022/04/25 00:00:59;;;;;;;2.43;2.23;;;11.80;99.90;;;;;;5035320;28;20479;-67
2022/04/25 00:03:26;;;;;;;3.30;2.50;;;11.90;99.90;;;;;;5041270;28;20441;-68
2022/04/25 00:05:52;;;;;;;9.43;3.30;;;11.90;99.90;;;;;;5038381;28;20468;-68
2022/04/25 00:08:19;;;;;;;3.23;2.60;;;11.90;99.90;;;;;;5038969;28;20434;-69
2022/04/25 00:10:47;;;;;;;3.53;2.50;;;11.70;99.90;;;;;;5036160;28;20500;-68
2022/04/25 00:13:14;;;;;;;4.43;2.67;;;11.30;99.90;;;;;;5038566;28;20459;-69
2022/04/25 00:15:41;;;;;;;4.00;2.13;;;11.10;99.90;;;;;;5041804;28;20515;-69
2022/04/25 00:18:08;;;;;;;3.83;2.97;;;11.00;99.90;;;;;;5041972;28;20530;-69
2022/04/25 00:20:34;;;;;;;5.33;3.10;;;11.00;99.90;;;;;;5041460;28;20463;-69
2022/04/25 00:23:04;;;;;;;5.73;4.93;;;10.80;99.90;;;;;;5042348;28;20865;-69
2022/04/25 00:25:31;;;;;;;3.77;2.67;;;10.80;99.90;;;;;;5027375;28;20500;-68
2022/04/25 00:27:59;;;;;;;3.80;2.60;;;10.70;99.90;;;;;;5035513;28;20552;-68
2022/04/25 00:30:28;;;;;;;3.00;2.70;;;10.60;99.90;;;;;;5036451;28;20994;-68
2022/04/25 00:32:56;;;;;;;3.83;3.43;;;10.80;99.90;;;;;;5041918;28;20546;-69
2022/04/25 00:35:23;;;;;;;4.47;2.83;;;10.90;99.90;;;;;;5037662;28;20612;-68
2022/04/25 00:37:50;;;;;;;4.10;3.23;;;11.00;99.90;;;;;;5045008;28;20433;-68
2022/04/25 00:40:19;;;;;;;5.47;2.97;;;11.00;99.90;;;;;;5036271;28;20480;-67
2022/04/25 00:42:45;;;;;;;9.13;4.00;;;11.10;99.90;;;;;;5037803;28;20438;-68
2022/04/25 00:45:14;;;;;;;4.30;3.70;;;11.10;99.90;;;;;;5040205;28;20460;-68
2022/04/25 00:47:42;;;;;;;4.87;3.80;;;11.00;99.90;;;;;;5039767;28;20566;-68
2022/04/25 00:50:10;;;;;;;4.60;4.20;;;11.00;99.90;;;;;;5040277;28;20455;-69
2022/04/25 00:52:37;;;;;;;9.63;3.27;;;10.90;99.90;;;;;;5046247;28;20502;-70
2022/04/25 00:55:06;;;;;;;5.00;3.00;;;11.20;99.90;;;;;;5044989;28;20446;-69
2022/04/25 00:57:33;;;;;;;5.10;3.80;;;11.10;99.90;;;;;;5044520;28;20487;-70
2022/04/25 01:00:00;;;;;;;7.00;4.13;;;11.20;99.90;;;;;;5040013;28;20462;-70
2022/04/25 01:02:29;;;;;;;4.30;3.90;;;11.30;99.90;;;;;;5040967;28;20477;-69
2022/04/25 01:04:56;;;;;;;7.27;4.00;;;11.40;99.90;;;;;;5040914;28;20864;-68
2022/04/25 01:07:23;;;;;;;6.40;4.30;;;11.40;99.90;;;;;;5037455;28;20460;-70
2022/04/25 01:09:49;;;;;;;4.37;2.50;;;11.30;99.90;;;;;;5036888;28;21044;-68
2022/04/25 01:12:16;;;;;;;7.13;3.73;;;11.20;99.90;;;;;;5040113;28;20457;-69
2022/04/25 01:14:43;;;;;;;5.70;3.47;;;11.20;99.90;;;;;;5038356;28;20584;-69
2022/04/25 01:17:10;;;;;;;4.00;3.60;;;11.30;99.90;;;;;;5040204;28;20481;-69
2022/04/25 01:19:38;;;;;;;8.30;4.63;;;11.30;99.90;;;;;;5046848;28;20561;-69
2022/04/25 01:22:10;;;;;;;4.47;3.27;;;11.10;99.90;;;;;;5045822;28;20439;-70
2022/04/25 01:27:22;;;;;;;3.33;3.07;;;10.80;99.90;;;;;;5033509;28;20422;-69
2022/04/25 01:29:52;;;;;;;3.50;2.70;;;10.60;99.90;;;;;;5037581;28;20450;-67
2022/04/25 01:32:20;;;;;;;4.70;1.87;;;10.50;99.90;;;;;;5045512;28;20428;-69
2022/04/25 01:34:47;;;;;;;2.60;2.40;;;10.30;99.90;;;;;;5041083;28;20957;-69
2022/04/25 01:37:15;;;;;;;3.17;2.50;;;10.20;99.90;;;;;;5045009;28;20431;-69
2022/04/25 01:39:46;;;;;;;1.70;1.50;;;10.10;99.90;;;;;;5042692;28;20948;-70
2022/04/25 01:42:14;;;;;;;1.40;1.30;;;10.00;99.90;;;;;;5039440;28;20965;-67
2022/04/25 01:44:41;;;;;;;1.87;1.17;;;9.90;99.90;;;;;;5041113;28;20463;-69
2022/04/25 01:47:09;;;;;;;2.03;1.00;;;9.80;99.90;;;;;;5040457;28;20425;-69
2022/04/25 01:49:37;;;;;;;1.87;1.53;;;9.80;99.90;;;;;;5038869;28;20455;-68
2022/04/25 01:52:06;;;;;;;1.83;1.50;;;9.80;99.90;;;;;;5041464;28;20463;-69
2022/04/25 01:54:33;;;;;;;5.70;1.90;;;9.80;99.90;;;;;;5040979;28;20443;-68
2022/04/25 01:57:01;;;;;;;3.63;1.60;;;9.80;99.90;;;;;;5041738;28;20456;-69
2022/04/25 01:59:29;;;;;;;2.40;1.33;;;9.70;99.90;;;;;;5042463;28;20611;-69
2022/04/25 02:01:55;;;;;;;1.40;1.27;;;9.70;99.90;;;;;;5034937;28;20442;-68
2022/04/25 02:04:22;;;;;;;3.60;1.93;;;9.60;99.90;;;;;;5044616;28;20435;-68
2022/04/25 02:06:49;;;;;;;1.43;1.33;;;9.50;99.90;;;;;;5043903;28;20437;-67
2022/04/25 02:09:17;;;;;;;2.13;1.53;;;9.50;99.90;;;;;;5040726;28;20522;-68
2022/04/25 02:11:43;;;;;;;2.70;1.73;;;9.50;99.90;;;;;;5042215;28;20545;-69
2022/04/25 02:14:11;;;;;;;5.97;2.13;;;9.50;99.90;;;;;;5044317;28;20456;-69
2022/04/25 02:16:38;;;;;;;8.70;4.80;;;9.60;99.90;;;;;;5041535;28;20878;-68
2022/04/25 02:19:05;;;;;;;2.17;1.60;;;9.60;99.90;;;;;;5031868;28;21197;-68
2022/04/25 02:21:33;;;;;;;4.87;3.00;;;9.60;99.90;;;;;;5056197;22;20503;-76
2022/04/25 02:24:00;;;;;;;3.57;3.20;;;9.70;99.90;;;;;;5038320;28;20999;-76
2022/04/25 02:26:29;;;;;;;2.60;2.40;;;9.70;99.90;;;;;;5050299;28;20472;-77
2022/04/25 02:28:59;;;;;;;3.70;2.87;;;9.70;99.90;;;;;;5048130;28;20518;-76
2022/04/25 02:31:27;;;;;;;5.23;3.40;;;9.60;99.90;;;;;;5033677;28;20531;-75
2022/04/25 02:33:54;;;;;;;7.43;4.43;;;9.60;99.90;;;;;;5022264;28;20436;-76
2022/04/25 02:36:21;;;;;;;5.90;4.03;;;9.60;99.90;;;;;;5025004;28;20431;-76
2022/04/25 02:38:47;;;;;;;9.60;4.57;;;9.60;99.90;;;;;;5025496;28;20604;-76
2022/04/25 02:41:15;;;;;;;6.47;3.60;;;9.60;99.90;;;;;;5030448;28;20484;-75
2022/04/25 02:43:43;;;;;;;9.50;5.47;;;9.60;99.90;;;;;;5028724;28;20901;-76
2022/04/25 02:46:12;;;;;;;8.77;6.03;;;9.70;99.90;;;;;;5026922;28;20523;-76
2022/04/25 02:48:42;;;;;;;9.80;6.50;;;9.80;99.90;;;;;;5025423;28;20457;-76
2022/04/25 02:51:12;;;;;;;9.90;6.37;;;9.80;99.90;;;;;;5031370;28;20532;-76
2022/04/25 02:53:39;;;;;;;8.23;4.57;;;9.90;99.90;;;;;;5034502;28;21014;-76
2022/04/25 02:56:06;;;;;;;9.97;6.50;;;9.90;99.90;;;;;;5033957;28;20454;-76
2022/04/25 02:58:34;;;;;;;9.03;6.73;;;9.90;99.90;;;;;;5033528;28;20528;-75
2022/04/25 03:01:04;;;;;;;9.50;5.13;;;10.00;99.90;;;;;;5031049;28;20462;-74
2022/04/25 03:03:32;;;;;;;5.10;4.00;;;10.00;99.90;;;;;;5033801;28;20439;-75
2022/04/25 03:06:05;;;;;;;8.90;6.37;;;9.90;99.90;;;;;;5037510;28;20518;-74
2022/04/25 03:08:33;;;;;;;9.63;6.00;;;9.90;99.90;;;;;;5034724;28;20465;-74
2022/04/25 03:10:59;;;;;;;8.60;7.30;;;9.90;99.90;;;;;;5025760;28;21086;-74
2022/04/25 03:13:27;;;;;;;9.77;5.70;;;9.90;99.90;;;;;;5025334;28;20939;-76
2022/04/25 03:15:57;;;;;;;10.13;6.10;;;9.80;99.90;;;;;;5020427;28;20460;-75
2022/04/25 03:18:23;;;;;;;8.80;5.70;;;9.80;99.90;;;;;;5022001;28;20456;-74
2022/04/25 03:20:56;;;;;;;8.30;6.20;;;9.80;99.90;;;;;;5031281;28;20478;-75
2022/04/25 03:23:28;;;;;;;5.47;4.63;;;9.80;99.90;;;;;;5034559;28;20524;-74
2022/04/25 03:25:54;;;;;;;5.57;4.53;;;9.70;99.90;;;;;;5032486;28;20559;-75
2022/04/25 03:28:21;;;;;;;6.57;3.57;;;9.70;99.90;;;;;;5026810;28;20518;-76
2022/04/25 03:30:48;;;;;;;6.57;3.60;;;9.70;99.90;;;;;;5026927;28;20461;-76
2022/04/25 03:33:15;;;;;;;6.20;4.37;;;9.80;99.90;;;;;;5024040;28;20488;-76
2022/04/25 03:35:46;;;;;;;4.93;3.40;;;9.80;99.90;;;;;;5029610;28;20464;-75
2022/04/25 03:38:13;;;;;;;4.43;3.47;;;9.90;99.90;;;;;;5035637;28;20551;-75
2022/04/25 03:40:43;;;;;;;4.90;4.30;;;9.90;99.90;;;;;;5029927;28;20513;-74
2022/04/25 03:43:10;;;;;;;4.43;2.83;;;9.90;99.90;;;;;;5037721;28;20459;-75
2022/04/25 03:45:40;;;;;;;4.57;2.93;;;10.00;99.90;;;;;;5038493;28;20457;-75
2022/04/25 03:48:08;;;;;;;6.70;3.90;;;9.90;99.90;;;;;;5025630;28;20556;-76
2022/04/25 03:50:34;;;;;;;5.27;3.93;;;10.00;99.90;;;;;;5019851;28;20599;-76
2022/04/25 03:53:08;;;;;;;6.73;4.63;;;10.00;99.90;;;;;;5024006;28;20451;-76
2022/04/25 03:58:22;;;;;;;7.60;4.80;;;10.20;99.90;;;;;;5022248;28;20445;-76
2022/04/25 04:00:49;;;;;;;9.20;5.17;;;10.20;99.90;;;;;;5021264;28;20484;-77
2022/04/25 04:03:17;;;;;;;8.90;7.63;;;10.20;99.90;;;;;;5019185;28;20927;-76
2022/04/25 04:05:45;;;;;;;10.80;5.50;;;10.20;99.90;;;;;;5023842;28;20612;-76
2022/04/25 04:08:13;;;;;;;5.60;4.47;;;10.30;99.90;;;;;;5025823;28;20468;-76
2022/04/25 04:10:40;;;;;;;6.33;5.17;;;10.10;99.90;;;;;;5021027;28;20449;-76
2022/04/25 04:13:07;;;;;;;9.03;4.97;;;10.20;99.90;;;;;;5024117;28;20515;-76
2022/04/25 04:15:35;;;;;;;7.57;5.30;;;10.10;99.90;;;;;;5019405;28;20428;-76
2022/04/25 04:18:02;;;;;;;8.10;4.90;;;10.00;99.90;;;;;;5024800;28;20470;-75
2022/04/25 04:20:28;;;;;;;5.97;4.53;;;10.10;99.90;;;;;;5027187;28;20481;-75
2022/04/25 04:23:00;;;;;;;6.23;4.00;;;10.00;99.90;;;;;;5019264;28;20577;-76
2022/04/25 04:25:27;;;;;;;6.50;4.60;;;10.00;99.90;;;;;;5020103;28;21013;-76
2022/04/25 04:27:57;;;;;;;8.40;5.87;;;10.00;99.90;;;;;;5022317;28;20460;-76
2022/04/25 04:30:23;;;;;;;5.60;4.07;;;10.10;99.90;;;;;;5017754;28;20839;-75
2022/04/25 04:32:54;;;;;;;5.27;4.60;;;10.00;99.90;;;;;;5020158;28;20504;-76
2022/04/25 04:38:02;;;;;;;7.40;4.37;;;10.10;99.90;;;;;;5028859;28;20456;-76
2022/04/25 04:40:29;;;;;;;5.30;3.53;;;10.00;99.90;;;;;;5020126;28;20480;-75
2022/04/25 04:42:56;;;;;;;9.30;4.77;;;10.00;99.90;;;;;;5020128;28;20455;-76
2022/04/25 04:45:23;;;;;;;10.60;5.00;;;10.00;99.90;;;;;;5023251;28;20431;-74
2022/04/25 04:47:51;;;;;;;6.67;4.50;;;10.00;99.90;;;;;;5025558;28;20431;-75
2022/04/25 04:50:18;;;;;;;16.83;4.93;;;9.90;99.90;;;;;;5025861;28;20435;-76
2022/04/25 04:52:45;;;;;;;6.50;4.80;;;10.00;99.90;;;;;;5026928;28;20820;-76
2022/04/25 04:55:14;;;;;;;4.70;4.17;;;10.20;99.90;;;;;;5026391;28;20440;-76
2022/04/25 04:57:41;;;;;;;4.90;3.73;;;10.30;99.90;;;;;;5027714;28;20566;-76
2022/04/25 05:00:10;;;;;;;5.67;5.10;;;10.40;99.90;;;;;;5028742;28;20510;-76
2022/04/25 05:02:38;;;;;;;6.30;3.97;;;10.40;99.90;;;;;;5022469;28;20476;-76
2022/04/25 05:05:07;;;;;;;5.80;4.80;;;10.50;99.90;;;;;;5022083;28;20456;-77
2022/04/25 05:07:34;;;;;;;5.53;4.40;;;10.50;99.90;;;;;;5019184;28;20915;-74
2022/04/25 05:10:03;;;;;;;4.47;3.10;;;10.60;99.90;;;;;;5025514;28;20547;-76
2022/04/25 05:12:30;;;;;;;5.00;3.53;;;10.60;99.90;;;;;;5024021;28;21001;-75
2022/04/25 05:14:57;;;;;;;4.13;3.73;;;10.50;99.90;;;;;;5027636;28;20482;-76
2022/04/25 05:17:27;;;;;;;6.77;3.10;;;10.20;99.90;;;;;;5026859;28;20427;-77
2022/04/25 05:19:58;;;;;;;7.50;3.80;;;10.10;99.90;;;;;;5030043;28;20431;-79
2022/04/25 05:22:26;;;;;;;5.50;4.60;;;10.10;99.90;;;;;;5035612;28;20466;-76
2022/04/25 05:24:53;;;;;;;5.40;3.70;;;10.10;99.90;;;;;;5022815;28;20469;-77
2022/04/25 05:27:19;;;;;;;7.50;3.80;;;10.20;99.90;;;;;;5022987;28;20439;-76
2022/04/25 05:29:46;;;;;;;11.30;4.40;;;10.10;99.90;;;;;;5023138;28;20945;-76
2022/04/25 05:32:13;;;;;;;6.03;4.40;;;10.10;99.90;;;;;;5022111;28;21029;-77
2022/04/25 05:34:39;;;;;;;7.73;4.33;;;10.10;99.90;;;;;;5017375;28;20432;-76
2022/04/25 05:37:06;;;;;;;4.73;3.50;;;10.00;99.90;;;;;;5019194;28;20542;-76
2022/04/25 05:39:34;;;;;;;11.90;3.73;;;10.00;99.90;;;;;;5018898;28;20827;-76
2022/04/25 05:42:01;;;;;;;4.97;3.63;;;10.10;99.90;;;;;;5024678;28;20550;-76
2022/04/25 05:44:28;;;;;;;5.00;3.90;;;10.10;99.90;;;;;;5021360;28;20466;-77
2022/04/25 05:46:56;;;;;;;4.93;3.93;;;10.00;99.90;;;;;;5014872;28;20462;-76
2022/04/25 05:52:08;;;;;;;3.03;2.33;;;10.40;99.90;;;;;;5021598;28;20953;-76
2022/04/25 05:54:36;;;;;;;4.87;2.97;;;10.20;99.90;;;;;;5032351;28;20498;-75
2022/04/25 05:57:04;;;;;;;2.77;2.57;;;10.00;99.90;;;;;;5024570;28;20416;-76
2022/04/25 05:59:30;;;;;;;3.80;3.23;;;9.80;99.90;;;;;;5025349;28;20512;-77
2022/04/25 06:01:57;;;;;;;4.83;3.70;;;10.10;99.90;;;;;;5017288;28;20466;-76
2022/04/25 06:04:24;;;;;;;5.90;4.20;;;10.00;99.90;;;;;;5023992;28;20431;-76
2022/04/25 06:06:51;;;;;;;4.50;3.77;;;10.00;99.90;;;;;;5026290;28;20473;-76
2022/04/25 06:09:19;;;;;;;6.57;4.03;;;10.10;99.90;;;;;;5024458;28;20548;-77
2022/04/25 06:11:49;;;;;;;4.97;4.00;;;10.20;99.90;;;;;;5027994;28;20466;-76
2022/04/25 06:14:15;;;;;;;5.30;4.27;;;10.20;99.90;;;;;;5022648;28;20468;-76
2022/04/25 06:16:42;;;;;;;4.80;2.70;;;10.10;99.90;;;;;;5018380;28;20534;-76
2022/04/25 06:19:09;;;;;;;7.13;3.40;;;10.20;99.90;;;;;;5022009;28;20439;-76
2022/04/25 06:21:36;;;;;;;6.77;4.13;;;10.20;99.90;;;;;;5023643;28;20456;-76
2022/04/25 06:24:04;;;;;;;7.13;4.73;;;10.40;99.90;;;;;;5023069;28;20675;-77
2022/04/25 06:26:30;;;;;;;5.50;3.67;;;10.60;99.90;;;;;;5027591;28;20900;-76
2022/04/25 06:28:58;;;;;;;4.00;3.03;;;10.70;99.90;;;;;;5023273;28;20485;-76
2022/04/25 06:31:25;;;;;;;6.27;3.93;;;10.60;99.90;;;;;;5022994;28;20480;-76
2022/04/25 06:33:52;;;;;;;5.80;4.07;;;10.60;99.90;;;;;;5026120;28;20501;-76
2022/04/25 06:36:18;;;;;;;5.40;3.27;;;10.50;99.90;;;;;;5026369;28;20518;-77
2022/04/25 06:38:45;;;;;;;6.37;5.33;;;10.60;99.90;;;;;;5020022;28;20522;-75
2022/04/25 06:41:13;;;;;;;5.03;3.43;;;10.70;99.90;;;;;;5022693;28;20480;-76
2022/04/25 06:43:43;;;;;;;4.60;3.30;;;10.80;99.90;;;;;;5021755;28;20570;-77
2022/04/25 06:46:11;;;;;;;4.73;4.23;;;10.90;99.90;;;;;;5019582;28;20473;-76
2022/04/25 06:48:37;;;;;;;6.67;5.00;;;10.80;99.90;;;;;;5024423;28;20490;-76
2022/04/25 06:51:07;;;;;;;6.43;3.47;;;11.00;99.90;;;;;;5020345;28;20474;-76
2022/04/25 06:53:33;;;;;;;5.80;4.27;;;10.90;99.90;;;;;;5025048;28;20440;-76
2022/04/25 06:56:00;;;;;;;4.43;3.10;;;10.80;99.90;;;;;;5022994;28;20456;-75
2022/04/25 06:58:27;;;;;;;5.57;4.07;;;10.80;99.90;;;;;;5021967;28;20433;-75
2022/04/25 07:00:54;;;;;;;6.27;4.90;;;10.80;99.90;;;;;;5024298;28;21023;-76
2022/04/25 07:03:24;;;;;;;6.33;5.10;;;10.90;99.90;;;;;;5018279;28;20461;-75
2022/04/25 07:05:52;;;;;;;5.30;4.07;;;10.90;99.90;;;;;;5028172;28;20507;-76
2022/04/25 07:08:18;;;;;;;7.00;4.43;;;10.90;99.90;;;;;;5024181;28;20443;-76
2022/04/25 07:10:45;;;;;;;7.37;4.00;;;10.90;99.90;;;;;;5027120;28;20460;-77
2022/04/25 07:13:12;;;;;;;6.70;4.50;;;10.90;99.90;;;;;;5026003;28;20461;-77
2022/04/25 07:15:38;;;;;;;6.53;4.60;;;11.00;99.90;;;;;;5027126;28;20520;-77
2022/04/25 07:18:05;;;;;;;5.20;4.10;;;11.00;99.90;;;;;;5019181;28;20924;-77
2022/04/25 07:20:33;;;;;;;6.17;4.60;;;10.90;99.90;;;;;;5016738;28;20456;-77
2022/04/25 07:31:13;;;;;;;6.60;5.50;;;10.90;99.90;;;;;;5021410;28;20471;-76
2022/04/25 07:33:43;;;;;;;8.00;5.83;;;10.80;99.90;;;;;;5021322;28;20506;-75
2022/04/25 07:36:12;;;;;;;6.90;4.50;;;10.90;99.90;;;;;;5019792;28;21022;-75
2022/04/25 07:38:39;;;;;;;7.17;4.67;;;10.90;99.90;;;;;;5020296;28;20460;-77
2022/04/25 07:41:07;;;;;;;5.93;4.97;;;10.90;99.90;;;;;;5018421;28;20875;-75
2022/04/25 07:43:35;;;;;;;4.63;3.83;;;10.80;99.90;;;;;;5016008;28;20567;-77
2022/04/25 07:46:02;;;;;;;8.53;5.80;;;11.00;99.90;;;;;;5016986;28;20639;-77
2022/04/25 07:48:29;;;;;;;6.63;3.67;;;11.10;99.90;;;;;;5027558;28;20465;-77
2022/04/25 07:50:56;;;;;;;8.43;5.97;;;11.20;99.90;;;;;;5021027;28;20453;-76
2022/04/25 07:53:24;;;;;;;9.70;6.57;;;11.00;99.90;;;;;;5026595;28;20457;-77
2022/04/25 07:55:50;;;;;;;8.10;5.27;;;11.10;99.90;;;;;;5027426;28;20472;-76
2022/04/25 07:58:17;;;;;;;13.90;5.23;;;11.00;99.90;;;;;;5021577;28;20826;-77
2022/04/25 08:00:44;;;;;;;10.33;7.30;;;11.10;99.90;;;;;;5018413;28;20862;-77
2022/04/25 08:03:10;;;;;;;7.43;6.37;;;11.00;99.90;;;;;;5024406;28;20495;-77
2022/04/25 08:05:37;;;;;;;8.20;4.87;;;10.90;99.90;;;;;;5024944;28;20531;-76
2022/04/25 08:08:05;;;;;;;5.77;5.20;;;10.80;99.90;;;;;;5025098;28;20439;-76
2022/04/25 08:10:33;;;;;;;8.77;6.27;;;10.80;99.90;;;;;;5021207;28;21020;-75
2022/04/25 08:18:28;;;;;;;9.43;6.70;;;10.60;99.90;;;;;;5030423;28;20587;-75
2022/04/25 08:20:55;;;;;;;9.57;7.07;;;10.50;99.90;;;;;;5018055;28;20766;-76
2022/04/25 08:23:22;;;;;;;12.70;7.57;;;10.60;99.90;;;;;;5038115;22;20609;-68
2022/04/25 08:25:50;;;;;;;9.30;6.00;;;10.60;99.90;;;;;;5024171;28;20492;-69
2022/04/25 08:28:16;;;;;;;14.57;6.67;;;10.40;99.90;;;;;;5028719;28;20559;-68
2022/04/25 08:30:43;;;;;;;10.90;5.87;;;10.30;99.90;;;;;;5027225;28;20464;-69
2022/04/25 08:33:11;;;;;;;9.90;5.90;;;10.40;99.90;;;;;;5017316;28;20914;-68
2022/04/25 08:35:37;;;;;;;10.10;6.30;;;10.60;99.90;;;;;;5021406;28;20839;-70
2022/04/25 08:38:04;;;;;;;9.33;6.07;;;10.70;99.90;;;;;;5027878;28;20489;-69
2022/04/25 08:40:31;;;;;;;8.80;7.30;;;10.60;99.90;;;;;;5021892;28;20439;-68
2022/04/25 08:42:59;;;;;;;10.60;6.90;;;10.70;99.90;;;;;;5010428;28;20726;-69
2022/04/25 08:45:28;;;;;;;7.57;5.17;;;10.90;99.90;;;;;;5025894;28;20440;-69
2022/04/25 08:47:58;;;;;;;9.93;6.90;;;10.90;99.90;;;;;;5021235;28;20587;-71
2022/04/25 08:50:26;;;;;;;17.37;7.67;;;10.80;99.90;;;;;;5024725;28;20540;-71
2022/04/25 08:52:54;;;;;;;10.77;7.30;;;10.80;99.90;;;;;;5015902;28;21042;-70
2022/04/25 08:55:22;;;;;;;12.00;7.23;;;10.70;99.90;;;;;;5031180;28;20455;-70
2022/04/25 08:57:51;;;;;;;11.40;8.30;;;10.90;99.90;;;;;;5021318;28;20515;-71
2022/04/25 09:00:19;;;;;;;11.90;8.03;;;10.80;99.90;;;;;;5026817;28;20459;-71
2022/04/25 09:02:47;;;;;;;11.17;7.57;;;10.90;99.90;;;;;;5023848;28;20509;-71
2022/04/25 09:05:14;;;;;;;8.40;5.60;;;11.10;99.90;;;;;;5020962;28;20451;-71
2022/04/25 09:07:42;;;;;;;10.93;8.20;;;11.20;99.90;;;;;;5025328;28;20460;-71
2022/04/25 09:10:11;;;;;;;10.10;6.00;;;11.30;99.90;;;;;;5027827;28;20558;-71
2022/04/25 09:12:40;;;;;;;9.80;6.50;;;11.30;99.90;;;;;;5034264;28;20430;-71
2022/04/25 09:15:08;;;;;;;10.67;6.30;;;11.20;99.90;;;;;;5017242;28;20525;-71
2022/04/25 09:17:38;;;;;;;8.50;6.90;;;11.20;99.90;;;;;;5021197;28;20432;-71
2022/04/25 09:20:06;;;;;;;7.13;5.30;;;11.30;99.90;;;;;;5022018;28;20439;-70
2022/04/25 09:22:35;;;;;;;12.13;6.47;;;11.40;99.90;;;;;;5027320;28;20485;-71
2022/04/25 09:25:07;;;;;;;12.60;7.67;;;11.40;99.90;;;;;;5025585;28;20456;-70
2022/04/25 09:27:34;;;;;;;10.97;8.93;;;11.60;99.90;;;;;;5023658;28;20814;-70
2022/04/25 09:30:16;;;;;;;7.77;5.23;;;11.50;99.90;;;;;;5026583;28;20427;-71
2022/04/25 09:32:45;;;;;;;12.63;6.93;;;11.50;99.90;;;;;;5020502;28;20468;-71
2022/04/25 09:35:37;;;;;;;13.17;6.80;;;11.40;99.90;;;;;;5028884;28;21021;-71
2022/04/25 09:38:05;;;;;;;12.13;6.77;;;11.70;99.90;;;;;;5026004;28;20566;-71
2022/04/25 09:40:33;;;;;;;6.20;5.60;;;11.90;99.90;;;;;;5022379;28;20461;-71
2022/04/25 09:43:06;;;;;;;8.70;5.97;;;12.10;99.90;;;;;;5017374;28;20501;-70
2022/04/25 09:45:34;;;;;;;12.10;7.70;;;12.30;99.90;;;;;;5023615;28;20928;-71
2022/04/25 09:48:02;;;;;;;14.70;7.93;;;12.60;99.90;;;;;;5021714;28;20902;-71
2022/04/25 09:50:29;;;;;;;10.60;7.00;;;12.90;99.90;;;;;;5025295;28;20490;-71
2022/04/25 09:52:58;;;;;;;8.37;6.20;;;13.00;99.90;;;;;;5016056;28;20966;-71
2022/04/25 09:55:27;;;;;;;8.43;6.87;;;13.00;99.90;;;;;;5028858;28;20439;-70
2022/04/25 09:57:54;;;;;;;9.63;8.17;;;12.90;99.90;;;;;;5031312;28;20460;-70
2022/04/25 10:00:32;;;;;;;16.30;8.17;;;13.00;99.90;;;;;;5014440;28;20495;-71
2022/04/25 10:02:59;;;;;;;11.73;6.80;;;13.00;99.90;;;;;;5016694;28;20463;-70
2022/04/25 10:05:40;;;;;;;11.27;7.73;;;13.20;99.90;;;;;;5027924;28;20467;-70
2022/04/25 10:08:08;;;;;;;9.33;7.00;;;12.90;99.90;;;;;;5023610;28;20584;-70
2022/04/25 10:10:35;;;;;;;21.23;6.70;;;12.70;99.90;;;;;;5021334;28;20493;-70
2022/04/25 10:13:02;;;;;;;14.73;8.70;;;12.20;99.90;;;;;;5031754;28;20458;-70
2022/04/25 10:15:29;;;;;;;16.30;10.23;;;12.10;99.90;;;;;;5026412;28;20515;-71
2022/04/25 10:17:57;;;;;;;11.57;8.27;;;12.20;99.90;;;;;;5013006;28;20970;-71
2022/04/25 10:20:24;;;;;;;12.07;8.13;;;12.50;99.90;;;;;;5022890;28;20483;-71
2022/04/25 10:22:53;;;;;;;13.83;8.57;;;12.70;99.90;;;;;;5022033;28;20558;-72
2022/04/25 10:25:20;;;;;;;10.80;7.70;;;12.50;99.90;;;;;;5017592;28;20500;-72
2022/04/25 10:27:47;;;;;;;9.43;7.90;;;12.40;99.90;;;;;;5014577;28;20446;-73
2022/04/25 10:30:17;;;;;;;13.20;8.67;;;12.30;99.90;;;;;;5026500;28;20457;-70
2022/04/25 10:32:44;;;;;;;11.73;7.17;;;12.50;99.90;;;;;;5026208;28;20522;-71
2022/04/25 10:35:14;;;;;;;13.10;8.20;;;12.50;99.90;;;;;;5027232;28;20898;-71
2022/04/25 10:37:43;;;;;;;12.77;9.60;;;12.20;99.90;;;;;;5025318;28;20558;-71
2022/04/25 10:40:14;;;;;;;17.60;9.07;;;12.50;99.90;;;;;;5021976;28;20427;-69
2022/04/25 10:46:11;;;;;;;17.20;7.50;;;12.60;99.90;;;;;;4977774;28;20493;-70
2022/04/25 10:49:05;;;;;;;11.17;7.30;;;12.70;99.90;;;;;;5011302;28;20826;-70
2022/04/25 10:51:38;;;;;;;16.23;8.70;;;13.20;99.90;;;;;;5014294;28;20427;-70
2022/04/25 10:54:05;;;;;;;11.97;8.60;;;13.60;99.90;;;;;;5026645;28;20472;-71
2022/04/25 10:56:35;;;;;;;13.00;7.33;;;13.90;99.90;;;;;;5019396;28;20542;-70
2022/04/25 10:59:24;;;;;;;8.33;6.87;;;14.50;99.90;;;;;;5028411;28;20650;-71
2022/04/25 11:01:51;;;;;;;14.10;9.50;;;15.00;99.90;;;;;;5025018;28;20821;-70
2022/04/25 11:04:19;;;;;;;10.60;7.97;;;15.60;99.90;;;;;;5027931;28;20532;-70
2022/04/25 11:06:45;;;;;;;9.77;7.33;;;15.80;99.90;;;;;;5026242;28;20472;-71
2022/04/25 11:09:32;;;;;;;11.53;7.30;;;16.80;99.90;;;;;;5020322;28;20454;-72
2022/04/25 11:12:00;;;;;;;13.47;9.43;;;18.40;99.90;;;;;;5027396;28;20466;-72
2022/04/25 11:14:29;;;;;;;10.83;8.37;;;19.50;99.90;;;;;;5016089;28;20947;-72
2022/04/25 11:17:11;;;;;;;11.57;8.87;;;20.70;99.90;;;;;;5023957;28;20464;-72
2022/04/25 11:19:46;;;;;;;7.87;7.10;;;20.10;99.90;;;;;;5032366;28;20445;-71
2022/04/25 11:22:31;;;;;;;11.40;8.53;;;19.40;99.90;;;;;;5020908;28;20863;-70
2022/04/25 11:25:20;;;;;;;16.03;9.80;;;17.80;99.90;;;;;;5025939;28;21213;-70
2022/04/25 11:28:04;;;;;;;11.00;8.30;;;17.20;99.90;;;;;;5022721;28;20459;-71
2022/04/25 11:30:31;;;;;;;16.87;8.13;;;16.30;99.90;;;;;;5019167;28;20503;-71
2022/04/25 11:33:02;;;;;;;13.10;9.93;;;16.00;99.90;;;;;;5023834;28;20523;-71
2022/04/25 11:35:29;;;;;;;10.30;8.50;;;16.10;99.90;;;;;;5025447;28;20918;-71
2022/04/25 11:37:57;;;;;;;11.23;9.10;;;16.40;99.90;;;;;;5027413;28;20509;-71
2022/04/25 11:40:24;;;;;;;9.63;8.40;;;16.50;99.90;;;;;;5010742;28;20461;-71
2022/04/25 11:42:52;;;;;;;14.00;8.77;;;16.20;99.90;;;;;;5024719;28;20496;-71
2022/04/25 11:45:21;;;;;;;9.73;8.37;;;16.30;99.90;;;;;;5024170;28;20944;-70
2022/04/25 11:47:48;;;;;;;9.03;6.93;;;15.80;99.90;;;;;;5020692;28;21820;-70
2022/04/25 11:50:19;;;;;;;11.80;8.80;;;15.40;99.90;;;;;;5024350;28;20466;-69
2022/04/25 11:52:46;;;;;;;8.33;6.00;;;15.30;99.90;;;;;;5030064;28;20451;-71
2022/04/25 11:55:14;;;;;;;10.70;7.87;;;15.50;99.90;;;;;;5035456;28;20526;-70
2022/04/25 11:57:42;;;;;;;11.83;8.23;;;15.30;99.90;;;;;;5013772;28;20502;-70
2022/04/25 12:00:11;;;;;;;15.43;6.90;;;14.80;99.90;;;;;;5022353;28;20884;-70
2022/04/25 12:02:40;;;;;;;12.83;6.53;;;15.00;99.90;;;;;;5022285;28;20485;-71
2022/04/25 12:05:08;;;;;;;12.13;9.00;;;14.90;99.90;;;;;;5023690;28;20467;-70
2022/04/25 12:07:35;;;;;;;7.27;6.40;;;15.30;99.90;;;;;;5021282;28;20534;-72
2022/04/25 12:15:37;;;;;;;8.47;7.13;;;15.20;99.90;;;;;;5014817;28;20460;-71
2022/04/25 12:18:17;;;;;;;5.73;5.03;;;14.90;99.90;;;;;;5024071;28;20431;-69
2022/04/25 12:20:45;;;;;;;10.30;6.57;;;14.50;99.90;;;;;;5022769;28;20457;-70
2022/04/25 12:23:22;;;;;;;6.90;5.30;;;14.40;99.90;;;;;;5026776;28;20515;-71
2022/04/25 12:25:49;;;;;;;11.30;6.60;;;14.60;99.90;;;;;;5020323;28;20516;-71
2022/04/25 12:28:17;;;;;;;9.27;6.10;;;14.70;99.90;;;;;;5026031;28;20523;-72
2022/04/25 12:30:46;;;;;;;8.50;5.87;;;14.70;99.90;;;;;;5020320;28;20464;-71
2022/04/25 12:33:15;;;;;;;6.20;5.00;;;14.70;99.90;;;;;;5021607;28;20477;-72
2022/04/25 12:35:43;;;;;;;8.37;6.03;;;14.60;99.90;;;;;;5024144;28;20857;-71
2022/04/25 12:38:10;;;;;;;8.90;5.70;;;14.50;99.90;;;;;;5016626;28;20553;-71
2022/04/25 12:40:56;;;;;;;7.33;4.87;;;14.40;99.90;;;;;;5021359;28;20802;-71
2022/04/25 12:43:38;;;;;;;5.60;4.33;;;14.40;99.90;;;;;;5019064;28;20464;-71
2022/04/25 12:46:06;;;;;;;7.80;5.10;;;14.20;99.90;;;;;;5027080;28;20483;-71
2022/04/25 12:48:59;;;;;;;6.87;5.60;;;13.80;99.90;;;;;;5030901;28;20512;-71
2022/04/25 12:51:34;;;;;;;7.30;4.80;;;13.50;99.90;;;;;;5019327;28;20458;-71
2022/04/25 12:54:01;;;;;;;10.90;6.17;;;13.60;99.90;;;;;;5020752;28;20898;-70
2022/04/25 12:56:30;;;;;;;6.37;5.37;;;13.70;99.90;;;;;;5030824;28;20468;-70
2022/04/25 12:58:57;;;;;;;7.00;5.93;;;13.60;99.90;;;;;;5022621;28;20419;-71
2022/04/25 13:01:29;;;;;;;10.80;6.47;;;13.60;99.90;;;;;;5016106;28;20434;-72
2022/04/25 13:04:13;;;;;;;11.30;7.43;;;13.50;99.90;;;;;;5018607;28;20509;-72
2022/04/25 13:06:42;;;;;;;8.60;6.77;;;13.60;99.90;;;;;;5023170;28;20493;-71
2022/04/25 13:09:09;;;;;;;9.70;6.23;;;13.60;99.90;;;;;;5025673;28;20863;-71
2022/04/25 13:11:37;;;;;;;9.20;6.80;;;13.50;99.90;;;;;;5021034;28;21166;-72
2022/04/25 13:14:04;;;;;;;11.63;6.97;;;13.40;99.90;;;;;;5024229;28;20522;-70
2022/04/25 13:16:31;;;;;;;7.07;5.90;;;13.40;99.90;;;;;;5030317;28;20430;-70
2022/04/25 13:18:58;;;;;;;7.90;6.37;;;13.20;99.90;;;;;;5027702;28;20453;-72
2022/04/25 13:21:26;;;;;;;7.93;5.73;;;13.10;99.90;;;;;;5028857;28;21517;-72
2022/04/25 13:23:53;;;;;;;11.47;7.50;;;13.10;99.90;;;;;;5028536;28;20497;-71
2022/04/25 13:26:21;;;;;;;11.40;7.53;;;13.10;99.90;;;;;;5020403;28;20458;-71